createdAt,value
2018-09-08T00:01:35.728Z,95768.98
2018-09-08T00:04:04.156Z,95763.77
2018-09-08T00:06:34.737Z,95763.09
2018-09-08T00:09:05.137Z,95764.88
2018-09-08T00:11:33.536Z,95766.86
2018-09-08T00:14:02.273Z,95774.64
2018-09-08T00:16:36.014Z,95775.14
2018-09-08T00:19:09.771Z,95773.02
2018-09-08T00:21:43.348Z,95770.98
2018-09-08T00:24:16.829Z,95778.94
2018-09-08T00:26:44.385Z,95786.73
2018-09-08T00:29:19.844Z,95784.94
2018-09-08T00:31:48.269Z,95789.23
2018-09-08T00:34:16.677Z,95792.89
2018-09-08T00:36:45.095Z,95788.73
2018-09-08T00:39:13.549Z,95792.44
2018-09-08T00:41:41.929Z,95794.91
2018-09-08T00:44:10.352Z,95797.69
2018-09-08T00:46:39.914Z,95805.17
2018-09-08T00:49:08.341Z,95796.44
2018-09-08T00:51:36.722Z,95795.13
2018-09-08T00:54:05.198Z,95793.66
2018-09-08T00:56:33.589Z,95794.49
2018-09-08T00:59:02.922Z,95784.00
2018-09-08T01:01:32.304Z,95792.77
2018-09-08T01:04:00.693Z,95794.84
2018-09-08T01:06:29.326Z,95801.23
2018-09-08T01:08:57.752Z,95796.13
2018-09-08T01:11:26.245Z,95793.16
2018-09-08T01:13:54.749Z,95799.72
2018-09-08T01:16:23.199Z,95805.92
2018-09-08T01:18:51.589Z,95808.61
2018-09-08T01:21:20.045Z,95802.34
2018-09-08T01:23:51.124Z,95809.55
2018-09-08T01:26:20.365Z,95812.69
2018-09-08T01:28:49.349Z,95814.19
2018-09-08T01:31:17.899Z,95807.82
2018-09-08T01:33:46.356Z,95800.97
2018-09-08T01:36:15.093Z,95800.01
2018-09-08T01:38:43.482Z,95800.14
2018-09-08T01:41:11.941Z,95802.47
2018-09-08T01:43:40.345Z,95802.13
2018-09-08T01:46:13.268Z,95805.81
2018-09-08T01:48:41.700Z,95800.82
2018-09-08T01:51:10.221Z,95812.31
2018-09-08T01:53:38.600Z,95809.78
2018-09-08T01:56:07.417Z,95820.17
2018-09-08T01:58:35.846Z,95820.66
2018-09-08T02:01:04.313Z,95821.16
2018-09-08T02:03:32.840Z,95831.17
2018-09-08T02:06:01.598Z,95831.84
2018-09-08T02:08:30.447Z,95834.03
2018-09-08T02:10:58.822Z,95827.82
2018-09-08T02:13:27.229Z,95835.56
2018-09-08T02:15:55.628Z,95841.48
2018-09-08T02:18:24.066Z,95837.13
2018-09-08T02:20:52.481Z,95850.21
2018-09-08T02:23:20.930Z,95845.00
2018-09-08T02:25:49.328Z,95848.42
2018-09-08T02:28:17.766Z,95842.41
2018-09-08T02:30:46.222Z,95843.05
2018-09-08T02:33:14.681Z,95838.03
2018-09-08T02:35:43.090Z,95838.34
2018-09-08T02:38:11.501Z,95843.98
2018-09-08T02:40:39.909Z,95846.73
2018-09-08T02:43:08.316Z,95850.59
2018-09-08T02:45:36.778Z,95850.44
2018-09-08T02:48:05.218Z,95844.36
2018-09-08T02:50:35.809Z,95842.92
2018-09-08T02:53:03.653Z,95840.42
2018-09-08T02:55:31.428Z,95835.85
2018-09-08T02:57:59.004Z,95837.03
2018-09-08T03:00:26.913Z,95832.11
2018-09-08T03:02:54.569Z,95830.06
2018-09-08T03:05:22.153Z,95829.94
2018-09-08T03:07:49.465Z,95833.61
2018-09-08T03:10:17.093Z,95836.17
2018-09-08T03:12:44.341Z,95839.66
2018-09-08T03:15:11.624Z,95850.75
2018-09-08T03:17:41.042Z,95854.11
2018-09-08T03:20:08.550Z,95841.24
2018-09-08T03:22:35.784Z,95852.16
2018-09-08T03:25:03.871Z,95858.33
2018-09-08T03:27:31.102Z,95850.50
2018-09-08T03:29:58.380Z,95845.95
2018-09-08T03:32:25.612Z,95838.22
2018-09-08T03:34:52.845Z,95839.08
2018-09-08T03:37:20.115Z,95843.69
2018-09-08T03:39:47.377Z,95846.66
2018-09-08T03:42:14.646Z,95848.93
2018-09-08T03:44:41.888Z,95846.47
2018-09-08T03:47:09.585Z,95842.09
2018-09-08T03:49:36.825Z,95840.94
2018-09-08T03:52:04.090Z,95844.33
2018-09-08T03:54:31.336Z,95841.41
2018-09-08T03:56:58.611Z,95848.90
2018-09-08T03:59:25.841Z,95852.28
2018-09-08T04:01:53.120Z,95846.05
2018-09-08T04:04:21.509Z,95842.14
2018-09-08T04:06:49.929Z,95848.47
2018-09-08T04:09:18.344Z,95840.57
2018-09-08T04:11:46.808Z,95839.47
2018-09-08T04:14:15.206Z,95839.31
2018-09-08T04:16:43.969Z,95838.55
2018-09-08T04:19:12.367Z,95845.10
2018-09-08T04:21:40.761Z,95845.10
2018-09-08T04:24:09.246Z,95846.02
2018-09-08T04:26:37.634Z,95852.09
2018-09-08T04:29:05.993Z,95852.93
2018-09-08T04:31:34.357Z,95857.10
2018-09-08T04:34:02.785Z,95857.50
2018-09-08T04:36:31.187Z,95862.03
2018-09-08T04:38:59.617Z,95860.48
2018-09-08T04:41:28.417Z,95864.84
2018-09-08T04:43:56.829Z,95865.64
2018-09-08T04:46:25.248Z,95867.47
2018-09-08T04:48:54.265Z,95867.19
2018-09-08T04:51:23.141Z,95870.02
2018-09-08T04:53:51.558Z,95865.33
2018-09-08T04:56:19.977Z,95862.47
2018-09-08T04:58:49.044Z,95865.09
2018-09-08T05:01:17.456Z,95866.95
2018-09-08T05:03:45.901Z,95864.65
2018-09-08T05:06:14.326Z,95866.20
2018-09-08T05:08:42.745Z,95874.06
2018-09-08T05:11:11.146Z,95871.56
2018-09-08T05:13:39.602Z,95877.08
2018-09-08T05:16:08.123Z,95883.59
2018-09-08T05:18:36.529Z,95878.87
2018-09-08T05:21:04.892Z,95883.52
2018-09-08T05:23:33.353Z,95875.17
2018-09-08T05:26:01.733Z,95890.59
2018-09-08T05:28:30.495Z,95884.91
2018-09-08T05:30:58.861Z,95878.19
2018-09-08T05:33:27.333Z,95875.09
2018-09-08T05:35:55.795Z,95880.95
2018-09-08T05:38:24.165Z,95879.45
2018-09-08T05:40:52.577Z,95884.70
2018-09-08T05:43:20.953Z,95880.97
2018-09-08T05:45:49.369Z,95884.17
2018-09-08T05:48:17.741Z,95886.05
2018-09-08T05:50:46.188Z,95887.11
2018-09-08T05:53:14.585Z,95891.59
2018-09-08T05:55:43.017Z,95892.23
2018-09-08T05:58:11.477Z,95883.75
2018-09-08T06:00:39.944Z,95888.33
2018-09-08T06:03:08.333Z,95889.28
2018-09-08T06:05:36.760Z,95890.63
2018-09-08T06:08:05.144Z,95893.09
2018-09-08T06:10:33.567Z,95897.38
2018-09-08T06:13:01.965Z,95899.26
2018-09-08T06:15:30.612Z,95899.72
2018-09-08T06:17:58.995Z,95897.66
2018-09-08T06:20:27.425Z,95899.80
2018-09-08T06:22:55.805Z,95905.69
2018-09-08T06:25:24.282Z,95908.32
2018-09-08T06:27:52.641Z,95908.64
2018-09-08T06:30:21.026Z,95911.96
2018-09-08T06:32:49.464Z,95913.33
2018-09-08T06:35:17.969Z,95915.83
2018-09-08T06:37:46.267Z,95914.70
2018-09-08T06:40:14.673Z,95919.73
2018-09-08T06:42:43.095Z,95919.17
2018-09-08T06:45:11.549Z,95915.23
2018-09-08T06:47:39.937Z,95916.06
2018-09-08T06:50:08.375Z,95921.91
2018-09-08T06:52:36.808Z,95924.75
2018-09-08T06:57:58.087Z,95925.06
2018-09-08T07:00:26.527Z,95925.78
2018-09-08T07:02:54.986Z,95929.66
2018-09-08T07:05:23.350Z,95931.58
2018-09-08T07:07:51.761Z,95928.41
2018-09-08T07:10:20.212Z,95929.98
2018-09-08T07:12:48.620Z,95937.45
2018-09-08T07:15:17.070Z,95931.42
2018-09-08T07:17:45.504Z,95933.88
2018-09-08T07:20:13.899Z,95942.30
2018-09-08T07:22:42.321Z,95943.14
2018-09-08T07:25:11.079Z,95946.61
2018-09-08T07:27:39.501Z,95945.77
2018-09-08T07:30:08.059Z,95946.74
2018-09-08T07:32:36.441Z,95946.73
2018-09-08T07:35:04.892Z,95944.41
2018-09-08T07:37:33.286Z,95945.67
2018-09-08T07:40:01.721Z,95948.59
2018-09-08T07:42:30.105Z,95946.60
2018-09-08T07:44:58.504Z,95953.97
2018-09-08T07:47:26.894Z,95953.36
2018-09-08T07:49:55.328Z,95953.39
2018-09-08T07:52:23.729Z,95955.23
2018-09-08T07:54:52.181Z,95961.53
2018-09-08T07:57:20.650Z,95963.91
2018-09-08T07:59:49.153Z,95965.94
2018-09-08T08:02:17.534Z,95968.09
2018-09-08T08:04:45.952Z,95966.75
2018-09-08T08:07:15.261Z,95970.51
2018-09-08T08:09:46.677Z,95970.77
2018-09-08T08:12:15.104Z,95971.02
2018-09-08T08:14:43.554Z,95971.45
2018-09-08T08:17:11.997Z,95978.31
2018-09-08T08:19:40.412Z,95978.81
2018-09-08T08:22:08.831Z,95984.13
2018-09-08T08:24:38.012Z,95988.12
2018-09-08T08:28:23.561Z,95980.28
2018-09-08T08:30:51.966Z,95982.31
2018-09-08T08:33:20.546Z,95984.16
2018-09-08T08:35:49.900Z,95982.86
2018-09-08T08:38:26.498Z,95983.03
2018-09-08T08:40:54.938Z,95981.58
2018-09-08T08:43:23.386Z,95982.20
2018-09-08T08:45:51.737Z,95990.14
2018-09-08T08:48:20.202Z,95987.64
2018-09-08T08:50:59.956Z,95984.02
2018-09-08T08:53:39.809Z,95983.66
2018-09-08T08:56:08.270Z,95985.91
2018-09-08T08:58:36.714Z,95987.77
2018-09-08T09:01:05.290Z,95980.52
2018-09-08T09:03:33.728Z,95979.72
2018-09-08T09:06:02.150Z,95978.22
2018-09-08T09:08:30.953Z,95983.81
2018-09-08T09:10:59.749Z,95980.44
2018-09-08T09:13:28.523Z,95980.89
2018-09-08T09:15:56.885Z,95978.09
2018-09-08T09:18:37.972Z,95976.89
2018-09-08T09:21:17.168Z,95977.47
2018-09-08T09:25:01.989Z,95972.61
2018-09-08T09:27:31.689Z,95971.17
2018-09-08T09:30:00.401Z,95967.95
2018-09-08T09:32:28.805Z,95967.02
2018-09-08T09:34:57.197Z,95968.53
2018-09-08T09:37:25.686Z,95960.52
2018-09-08T09:39:54.789Z,95954.48
2018-09-08T09:42:23.173Z,95955.27
2018-09-08T09:44:51.587Z,95958.33
2018-09-08T09:47:20.265Z,95951.50
2018-09-08T09:49:48.762Z,95948.77
2018-09-08T09:52:17.244Z,95950.03
2018-09-08T09:54:45.756Z,95946.44
2018-09-08T09:57:14.217Z,95948.68
2018-09-08T09:59:42.696Z,95948.34
2018-09-08T10:03:15.586Z,95945.97
2018-09-08T10:05:43.985Z,95935.36
2018-09-08T10:08:12.345Z,95932.05
2018-09-08T10:10:40.756Z,95939.48
2018-09-08T10:13:09.133Z,95937.59
2018-09-08T10:15:37.561Z,95934.16
2018-09-08T10:18:06.031Z,95931.74
2018-09-08T10:20:34.728Z,95929.89
2018-09-08T10:23:03.219Z,95923.02
2018-09-08T10:25:31.521Z,95929.66
2018-09-08T10:27:59.937Z,95930.98
2018-09-08T10:30:28.376Z,95926.53
2018-09-08T10:32:57.133Z,95925.98
2018-09-08T10:35:27.270Z,95928.38
2018-09-08T10:37:56.185Z,95925.70
2018-09-08T10:40:24.590Z,95918.59
2018-09-08T10:42:52.996Z,95921.27
2018-09-08T10:45:21.402Z,95917.49
2018-09-08T10:47:50.525Z,95909.47
2018-09-08T10:50:18.900Z,95911.05
2018-09-08T10:52:48.361Z,95907.22
2018-09-08T10:55:16.728Z,95906.16
2018-09-08T10:57:45.141Z,95909.58
2018-09-08T11:00:13.869Z,95907.42
2018-09-08T11:02:43.476Z,95911.62
2018-09-08T11:05:11.716Z,95910.75
2018-09-08T11:07:40.103Z,95913.00
2018-09-08T11:10:08.513Z,95914.58
2018-09-08T11:12:36.928Z,95913.80
2018-09-08T11:15:06.215Z,95909.48
2018-09-08T11:17:35.193Z,95906.84
2018-09-08T11:20:05.280Z,95904.24
2018-09-08T11:22:33.697Z,95895.97
2018-09-08T11:25:02.083Z,95905.61
2018-09-08T11:27:30.502Z,95905.45
2018-09-08T11:29:59.417Z,95907.31
2018-09-08T11:32:28.541Z,95909.46
2018-09-08T11:34:56.971Z,95903.72
2018-09-08T11:37:25.429Z,95904.55
2018-09-08T11:39:53.844Z,95917.62
2018-09-08T11:42:22.231Z,95910.52
2018-09-08T11:44:50.831Z,95912.83
2018-09-08T11:47:19.190Z,95908.67
2018-09-08T11:49:51.603Z,95906.28
2018-09-08T11:52:20.985Z,95904.00
2018-09-08T11:54:49.397Z,95898.60
2018-09-08T11:57:17.773Z,95903.02
2018-09-08T11:59:46.174Z,95889.50
2018-09-08T12:02:14.578Z,95893.84
2018-09-08T12:04:42.985Z,95888.12
2018-09-08T12:07:11.361Z,95886.95
2018-09-08T12:09:39.757Z,95886.42
2018-09-08T12:12:08.128Z,95884.13
2018-09-08T12:14:36.672Z,95883.73
2018-09-08T12:17:05.062Z,95885.53
2018-09-08T12:19:33.441Z,95881.03
2018-09-08T12:22:01.863Z,95882.31
2018-09-08T12:24:30.352Z,95880.63
2018-09-08T12:26:58.749Z,95876.38
2018-09-08T12:29:27.108Z,95872.00
2018-09-08T12:31:55.554Z,95870.72
2018-09-08T12:34:24.029Z,95870.55
2018-09-08T12:36:52.424Z,95868.09
2018-09-08T12:39:20.792Z,95868.14
2018-09-08T12:41:49.515Z,95873.39
2018-09-08T12:44:18.052Z,95872.78
2018-09-08T12:46:47.720Z,95876.02
2018-09-08T12:49:16.093Z,95868.90
2018-09-08T12:51:44.493Z,95872.65
2018-09-08T12:54:12.845Z,95867.52
2018-09-08T12:56:41.253Z,95871.33
2018-09-08T12:59:09.833Z,95863.96
2018-09-08T13:01:38.217Z,95856.30
2018-09-08T13:04:06.874Z,95858.66
2018-09-08T13:06:35.305Z,95857.27
2018-09-08T13:09:04.486Z,95855.09
2018-09-08T13:11:32.841Z,95849.23
2018-09-08T13:14:01.512Z,95846.92
2018-09-08T13:16:29.906Z,95839.53
2018-09-08T13:18:58.473Z,95845.66
2018-09-08T13:21:26.853Z,95841.80
2018-09-08T13:23:55.250Z,95839.33
2018-09-08T13:26:23.622Z,95836.42
2018-09-08T13:28:52.131Z,95829.88
2018-09-08T13:31:20.536Z,95830.95
2018-09-08T13:33:48.940Z,95839.75
2018-09-08T13:36:17.306Z,95837.16
2018-09-08T13:38:46.249Z,95842.75
2018-09-08T13:41:14.616Z,95834.62
2018-09-08T13:43:43.555Z,95835.72
2018-09-08T13:46:11.937Z,95838.95
2018-09-08T13:48:40.350Z,95836.72
2018-09-08T13:51:08.726Z,95834.20
2018-09-08T13:53:37.132Z,95835.47
2018-09-08T13:56:05.609Z,95832.17
2018-09-08T13:58:34.135Z,95830.59
2018-09-08T14:01:02.749Z,95831.22
2018-09-08T14:03:31.289Z,95826.58
2018-09-08T14:05:59.657Z,95821.94
2018-09-08T14:08:28.121Z,95819.13
2018-09-08T14:10:57.023Z,95819.06
2018-09-08T14:13:25.392Z,95809.29
2018-09-08T14:15:53.776Z,95811.17
2018-09-08T14:21:15.120Z,95807.94
2018-09-08T14:23:43.564Z,95798.09
2018-09-08T14:26:11.965Z,95800.31
2018-09-08T14:28:40.408Z,95804.46
2018-09-08T14:31:08.773Z,95796.81
2018-09-08T14:33:37.134Z,95803.11
2018-09-08T14:36:05.577Z,95800.45
2018-09-08T14:38:34.012Z,95800.49
2018-09-08T14:41:02.445Z,95798.08
2018-09-08T14:43:31.076Z,95800.53
2018-09-08T14:45:59.486Z,95800.62
2018-09-08T14:48:27.865Z,95800.95
2018-09-08T14:50:56.277Z,95801.22
2018-09-08T14:53:24.645Z,95803.11
2018-09-08T14:55:53.070Z,95804.55
2018-09-08T14:58:22.173Z,95808.95
2018-09-08T15:00:50.579Z,95813.45
2018-09-08T15:03:19.232Z,95810.17
2018-09-08T15:05:47.897Z,95812.33
2018-09-08T15:08:17.927Z,95805.66
2018-09-08T15:10:46.297Z,95802.23
2018-09-08T15:13:14.689Z,95804.66
2018-09-08T15:15:43.056Z,95807.60
2018-09-08T15:18:11.461Z,95806.57
2018-09-08T15:20:39.841Z,95795.89
2018-09-08T15:23:08.233Z,95803.09
2018-09-08T15:25:36.614Z,95794.14
2018-09-08T15:28:08.202Z,95795.70
2018-09-08T15:30:36.860Z,95804.39
2018-09-08T15:33:06.213Z,95799.45
2018-09-08T15:35:34.613Z,95802.09
2018-09-08T15:38:03.106Z,95802.77
2018-09-08T15:40:31.485Z,95798.70
2018-09-08T15:42:59.902Z,95800.92
2018-09-08T15:45:28.402Z,95803.46
2018-09-08T15:47:56.772Z,95810.84
2018-09-08T15:50:25.153Z,95807.95
2018-09-08T15:52:53.988Z,95809.31
2018-09-08T15:55:22.358Z,95808.13
2018-09-08T15:57:51.148Z,95807.89
2018-09-08T16:00:19.817Z,95816.03
2018-09-08T16:02:48.193Z,95809.03
2018-09-08T16:05:16.588Z,95810.81
2018-09-08T16:07:44.993Z,95810.20
2018-09-08T16:10:13.413Z,95807.16
2018-09-08T16:12:41.797Z,95815.17
2018-09-08T16:15:10.318Z,95809.73
2018-09-08T16:17:39.392Z,95811.92
2018-09-08T16:20:07.894Z,95819.05
2018-09-08T16:22:36.306Z,95815.74
2018-09-08T16:25:05.423Z,95821.08
2018-09-08T16:27:33.823Z,95820.88
2018-09-08T16:30:02.336Z,95816.70
2018-09-08T16:32:30.697Z,95806.41
2018-09-08T16:34:59.113Z,95806.95
2018-09-08T16:37:30.582Z,95806.63
2018-09-08T16:39:59.046Z,95806.41
2018-09-08T16:42:27.430Z,95816.46
2018-09-08T16:44:55.897Z,95815.20
2018-09-08T16:47:24.252Z,95820.88
2018-09-08T16:49:52.651Z,95813.41
2018-09-08T16:52:21.037Z,95811.17
2018-09-08T16:54:49.569Z,95810.44
2018-09-08T16:57:17.937Z,95813.94
2018-09-08T16:59:46.318Z,95817.47
2018-09-08T17:02:14.767Z,95817.68
2018-09-08T17:04:43.141Z,95817.03
2018-09-08T17:07:11.576Z,95823.54
2018-09-08T17:09:39.937Z,95823.16
2018-09-08T17:12:08.329Z,95824.14
2018-09-08T17:14:36.717Z,95824.55
2018-09-08T17:17:05.154Z,95832.62
2018-09-08T17:19:33.525Z,95830.69
2018-09-08T17:22:01.925Z,95829.93
2018-09-08T17:24:30.301Z,95833.37
2018-09-08T17:26:59.305Z,95829.41
2018-09-08T17:29:28.003Z,95835.11
2018-09-08T17:31:56.827Z,95835.72
2018-09-08T17:34:26.043Z,95833.52
2018-09-08T17:36:55.661Z,95830.18
2018-09-08T17:39:24.399Z,95838.47
2018-09-08T17:41:53.316Z,95838.09
2018-09-08T17:44:22.731Z,95843.21
2018-09-08T17:46:51.866Z,95845.19
2018-09-08T17:49:20.656Z,95849.09
2018-09-08T17:51:49.939Z,95848.22
2018-09-08T17:54:18.324Z,95852.63
2018-09-08T17:56:46.713Z,95853.00
2018-09-08T17:59:15.357Z,95860.93
2018-09-08T18:01:43.757Z,95856.78
2018-09-08T18:04:12.169Z,95855.80
2018-09-08T18:06:40.541Z,95864.34
2018-09-08T18:09:08.969Z,95861.02
2018-09-08T18:11:37.396Z,95862.31
2018-09-08T18:14:05.794Z,95859.22
2018-09-08T18:16:34.300Z,95859.78
2018-09-08T18:19:03.682Z,95860.83
2018-09-08T18:21:32.048Z,95858.68
2018-09-08T18:24:00.433Z,95865.25
2018-09-08T18:26:28.938Z,95869.09
2018-09-08T18:28:57.357Z,95879.23
2018-09-08T18:31:25.733Z,95886.50
2018-09-08T18:33:54.145Z,95882.56
2018-09-08T18:36:23.800Z,95885.55
2018-09-08T18:38:52.276Z,95879.95
2018-09-08T18:41:20.668Z,95884.56
2018-09-08T18:43:49.157Z,95878.61
2018-09-08T18:46:17.508Z,95882.28
2018-09-08T18:48:45.997Z,95877.03
2018-09-08T18:51:14.428Z,95875.40
2018-09-08T18:53:42.848Z,95883.18
2018-09-08T18:56:11.214Z,95889.95
2018-09-08T18:58:39.589Z,95886.14
2018-09-08T19:01:08.038Z,95887.32
2018-09-08T19:03:36.409Z,95891.64
2018-09-08T19:06:04.856Z,95890.84
2018-09-08T19:08:38.411Z,95890.67
2018-09-08T19:11:06.924Z,95886.09
2018-09-08T19:13:35.257Z,95887.27
2018-09-08T19:16:03.668Z,95887.08
2018-09-08T19:18:32.393Z,95887.89
2018-09-08T19:21:00.781Z,95891.70
2018-09-08T19:23:29.161Z,95895.32
2018-09-08T19:25:57.566Z,95890.36
2018-09-08T19:28:25.932Z,95899.09
2018-09-08T19:30:54.376Z,95896.02
2018-09-08T19:33:22.737Z,95891.56
2018-09-08T19:35:51.157Z,95891.41
2018-09-08T19:38:19.522Z,95891.41
2018-09-08T19:40:48.782Z,95891.23
2018-09-08T19:43:17.160Z,95894.07
2018-09-08T19:45:45.566Z,95887.48
2018-09-08T19:48:15.552Z,95887.80
2018-09-08T19:50:43.937Z,95891.11
2018-09-08T19:53:17.944Z,95894.74
2018-09-08T19:55:46.368Z,95895.92
2018-09-08T19:58:20.066Z,95891.78
2018-09-08T20:00:48.561Z,95897.58
2018-09-08T20:03:16.958Z,95892.81
2018-09-08T20:05:45.454Z,95890.84
2018-09-08T20:08:13.948Z,95889.17
2018-09-08T20:10:42.317Z,95894.13
2018-09-08T20:13:10.730Z,95891.31
2018-09-08T20:15:39.154Z,95893.80
2018-09-08T20:18:07.573Z,95898.89
2018-09-08T20:20:35.933Z,95898.39
2018-09-08T20:23:07.348Z,95897.73
2018-09-08T20:25:35.809Z,95891.48
2018-09-08T20:28:04.232Z,95899.38
2018-09-08T20:30:32.616Z,95898.73
2018-09-08T20:33:01.402Z,95897.06
2018-09-08T20:35:29.773Z,95890.31
2018-09-08T20:37:58.211Z,95897.89
2018-09-08T20:40:26.597Z,95898.25
2018-09-08T20:42:55.021Z,95896.59
2018-09-08T20:45:23.399Z,95896.75
2018-09-08T20:47:51.873Z,95905.95
2018-09-08T20:50:20.255Z,95897.39
2018-09-08T20:52:48.681Z,95899.05
2018-09-08T20:55:17.214Z,95902.34
2018-09-08T20:57:45.586Z,95898.56
2018-09-08T21:00:14.016Z,95905.77
2018-09-08T21:02:42.430Z,95913.52
2018-09-08T21:05:10.854Z,95911.85
2018-09-08T21:07:39.439Z,95910.39
2018-09-08T21:10:08.277Z,95908.41
2018-09-08T21:12:36.670Z,95920.27
2018-09-08T21:15:05.466Z,95925.50
2018-09-08T21:17:33.877Z,95922.21
2018-09-08T21:20:02.318Z,95924.53
2018-09-08T21:22:30.692Z,95921.07
2018-09-08T21:24:59.277Z,95926.81
2018-09-08T21:27:27.725Z,95923.47
2018-09-08T21:29:56.162Z,95924.61
2018-09-08T21:32:24.544Z,95924.00
2018-09-08T21:34:52.989Z,95926.11
2018-09-08T21:37:21.372Z,95928.61
2018-09-08T21:39:49.797Z,95928.25
2018-09-08T21:42:18.257Z,95922.33
2018-09-08T21:44:46.688Z,95920.67
2018-09-08T21:47:15.154Z,95923.66
2018-09-08T21:49:43.720Z,95924.31
2018-09-08T21:52:12.161Z,95926.62
2018-09-08T21:54:40.667Z,95925.45
2018-09-08T21:57:09.574Z,95930.54
2018-09-08T21:59:37.964Z,95923.95
2018-09-08T22:02:06.483Z,95928.38
2018-09-08T22:04:34.923Z,95926.59
2018-09-08T22:07:04.059Z,95926.58
2018-09-08T22:09:32.459Z,95927.40
2018-09-08T22:12:00.955Z,95925.52
2018-09-08T22:14:29.350Z,95930.41
2018-09-08T22:16:57.956Z,95926.33
2018-09-08T22:19:26.373Z,95926.83
2018-09-08T22:21:54.826Z,95923.53
2018-09-08T22:24:23.249Z,95921.22
2018-09-08T22:26:51.620Z,95919.23
2018-09-08T22:29:20.058Z,95914.63
2018-09-08T22:31:48.466Z,95918.40
2018-09-08T22:34:16.893Z,95921.67
2018-09-08T22:36:45.282Z,95922.32
2018-09-08T22:39:13.713Z,95925.72
2018-09-08T22:41:42.116Z,95928.16
2018-09-08T22:44:10.544Z,95926.33
2018-09-08T22:46:38.933Z,95925.14
2018-09-08T22:49:07.371Z,95929.55
2018-09-08T22:51:35.769Z,95928.09
2018-09-08T22:54:04.245Z,95924.29
2018-09-08T22:56:32.649Z,95922.63
2018-09-08T22:59:01.089Z,95921.84
2018-09-08T23:01:29.513Z,95918.42
2018-09-08T23:03:57.949Z,95924.45
2018-09-08T23:06:26.608Z,95927.19
2018-09-08T23:08:55.034Z,95930.81
2018-09-08T23:11:23.439Z,95924.38
2018-09-08T23:13:51.845Z,95922.44
2018-09-08T23:16:20.261Z,95927.88
2018-09-08T23:18:48.673Z,95922.81
2018-09-08T23:21:17.125Z,95923.73
2018-09-08T23:23:45.527Z,95920.78
2018-09-08T23:26:13.945Z,95925.50
2018-09-08T23:28:42.329Z,95926.52
2018-09-08T23:31:10.733Z,95918.94
2018-09-08T23:33:39.118Z,95920.36
2018-09-08T23:36:07.545Z,95915.53
2018-09-08T23:38:35.934Z,95914.28
2018-09-08T23:41:04.374Z,95914.77
2018-09-08T23:43:32.781Z,95909.00
2018-09-08T23:46:01.961Z,95907.91
2018-09-08T23:48:30.348Z,95903.79
2018-09-08T23:50:58.749Z,95905.45
2018-09-08T23:53:27.169Z,95905.38
2018-09-08T23:55:55.592Z,95904.84
2018-09-08T23:58:23.973Z,95908.75
